sensor_id;sensor_type;location;lat;lon;timestamp;P1;durP1;ratioP1;P2;durP2;ratioP2
5995;SDS011;3026;53.612;7.278;2023-06-14T00:02:22;3.63;;;1.60;;
5995;SDS011;3026;53.612;7.278;2023-06-14T00:04:49;1.70;;;1.20;;
5995;SDS011;3026;53.612;7.278;2023-06-14T00:07:17;4.70;;;1.60;;
5995;SDS011;3026;53.612;7.278;2023-06-14T00:09:44;3.10;;;1.50;;
5995;SDS011;3026;53.612;7.278;2023-06-14T00:12:12;5.47;;;2.00;;
5995;SDS011;3026;53.612;7.278;2023-06-14T00:14:39;2.60;;;1.90;;
5995;SDS011;3026;53.612;7.278;2023-06-14T00:17:06;3.40;;;1.60;;
5995;SDS011;3026;53.612;7.278;2023-06-14T00:19:32;2.70;;;1.73;;
5995;SDS011;3026;53.612;7.278;2023-06-14T00:22:01;2.70;;;1.60;;
5995;SDS011;3026;53.612;7.278;2023-06-14T00:24:28;4.93;;;2.00;;
5995;SDS011;3026;53.612;7.278;2023-06-14T00:26:56;4.00;;;1.83;;
5995;SDS011;3026;53.612;7.278;2023-06-14T00:29:24;1.80;;;1.70;;
5995;SDS011;3026;53.612;7.278;2023-06-14T00:31:51;2.40;;;1.60;;
5995;SDS011;3026;53.612;7.278;2023-06-14T00:34:17;4.03;;;2.00;;
5995;SDS011;3026;53.612;7.278;2023-06-14T00:36:44;2.73;;;1.90;;
5995;SDS011;3026;53.612;7.278;2023-06-14T00:39:11;3.27;;;1.60;;
5995;SDS011;3026;53.612;7.278;2023-06-14T00:41:39;4.13;;;1.70;;
5995;SDS011;3026;53.612;7.278;2023-06-14T00:44:06;4.30;;;1.60;;
5995;SDS011;3026;53.612;7.278;2023-06-14T00:46:34;4.67;;;1.93;;
5995;SDS011;3026;53.612;7.278;2023-06-14T00:49:00;2.70;;;1.47;;
5995;SDS011;3026;53.612;7.278;2023-06-14T00:51:28;2.70;;;1.40;;
5995;SDS011;3026;53.612;7.278;2023-06-14T00:53:54;4.47;;;1.73;;
5995;SDS011;3026;53.612;7.278;2023-06-14T00:56:21;3.57;;;1.83;;
5995;SDS011;3026;53.612;7.278;2023-06-14T00:58:48;5.30;;;2.00;;
5995;SDS011;3026;53.612;7.278;2023-06-14T01:01:16;2.87;;;1.93;;
5995;SDS011;3026;53.612;7.278;2023-06-14T01:03:44;4.90;;;1.90;;
5995;SDS011;3026;53.612;7.278;2023-06-14T01:06:14;4.07;;;2.20;;
5995;SDS011;3026;53.612;7.278;2023-06-14T01:08:55;4.37;;;2.00;;
5995;SDS011;3026;53.612;7.278;2023-06-14T01:11:29;5.90;;;2.03;;
5995;SDS011;3026;53.612;7.278;2023-06-14T01:14:04;6.63;;;2.13;;
5995;SDS011;3026;53.612;7.278;2023-06-14T01:16:32;2.10;;;1.70;;
5995;SDS011;3026;53.612;7.278;2023-06-14T01:19:02;2.90;;;1.93;;
5995;SDS011;3026;53.612;7.278;2023-06-14T01:21:30;4.77;;;1.80;;
5995;SDS011;3026;53.612;7.278;2023-06-14T01:24:08;6.63;;;1.90;;
5995;SDS011;3026;53.612;7.278;2023-06-14T01:26:36;4.87;;;2.20;;
5995;SDS011;3026;53.612;7.278;2023-06-14T01:29:04;5.33;;;2.03;;
5995;SDS011;3026;53.612;7.278;2023-06-14T01:31:33;4.47;;;2.00;;
5995;SDS011;3026;53.612;7.278;2023-06-14T01:34:06;5.40;;;1.93;;
5995;SDS011;3026;53.612;7.278;2023-06-14T01:36:33;3.07;;;1.77;;
5995;SDS011;3026;53.612;7.278;2023-06-14T01:39:02;2.53;;;1.80;;
5995;SDS011;3026;53.612;7.278;2023-06-14T01:41:32;2.67;;;2.03;;
5995;SDS011;3026;53.612;7.278;2023-06-14T01:44:01;4.53;;;1.97;;
5995;SDS011;3026;53.612;7.278;2023-06-14T01:46:29;3.10;;;2.17;;
5995;SDS011;3026;53.612;7.278;2023-06-14T01:48:56;4.23;;;2.13;;
5995;SDS011;3026;53.612;7.278;2023-06-14T01:51:23;4.43;;;2.20;;
5995;SDS011;3026;53.612;7.278;2023-06-14T01:53:50;3.53;;;2.10;;
5995;SDS011;3026;53.612;7.278;2023-06-14T01:56:17;3.10;;;2.73;;
5995;SDS011;3026;53.612;7.278;2023-06-14T01:58:46;4.30;;;2.10;;
5995;SDS011;3026;53.612;7.278;2023-06-14T02:01:13;4.50;;;2.17;;
5995;SDS011;3026;53.612;7.278;2023-06-14T02:03:41;3.30;;;2.30;;
5995;SDS011;3026;53.612;7.278;2023-06-14T02:06:10;3.27;;;2.50;;
5995;SDS011;3026;53.612;7.278;2023-06-14T02:08:37;4.17;;;1.80;;
5995;SDS011;3026;53.612;7.278;2023-06-14T02:11:04;3.07;;;2.67;;
5995;SDS011;3026;53.612;7.278;2023-06-14T02:13:31;3.37;;;2.60;;
5995;SDS011;3026;53.612;7.278;2023-06-14T02:15:59;3.80;;;2.53;;
5995;SDS011;3026;53.612;7.278;2023-06-14T02:18:26;5.30;;;2.17;;
5995;SDS011;3026;53.612;7.278;2023-06-14T02:20:52;3.87;;;2.50;;
5995;SDS011;3026;53.612;7.278;2023-06-14T02:23:19;3.57;;;2.53;;
5995;SDS011;3026;53.612;7.278;2023-06-14T02:25:46;2.87;;;2.20;;
5995;SDS011;3026;53.612;7.278;2023-06-14T02:28:13;4.30;;;2.30;;
5995;SDS011;3026;53.612;7.278;2023-06-14T02:30:39;6.27;;;2.77;;
5995;SDS011;3026;53.612;7.278;2023-06-14T02:33:08;3.03;;;2.27;;
5995;SDS011;3026;53.612;7.278;2023-06-14T02:35:37;4.00;;;2.40;;
5995;SDS011;3026;53.612;7.278;2023-06-14T02:38:04;3.77;;;2.37;;
5995;SDS011;3026;53.612;7.278;2023-06-14T02:40:31;3.43;;;2.27;;
5995;SDS011;3026;53.612;7.278;2023-06-14T02:42:57;3.37;;;2.50;;
5995;SDS011;3026;53.612;7.278;2023-06-14T02:45:24;4.23;;;2.63;;
5995;SDS011;3026;53.612;7.278;2023-06-14T02:47:51;5.97;;;2.50;;
5995;SDS011;3026;53.612;7.278;2023-06-14T02:50:19;3.77;;;2.23;;
5995;SDS011;3026;53.612;7.278;2023-06-14T02:52:49;5.77;;;2.70;;
5995;SDS011;3026;53.612;7.278;2023-06-14T02:55:15;5.60;;;2.80;;
5995;SDS011;3026;53.612;7.278;2023-06-14T02:57:42;6.23;;;2.90;;
5995;SDS011;3026;53.612;7.278;2023-06-14T03:00:09;3.10;;;2.70;;
5995;SDS011;3026;53.612;7.278;2023-06-14T03:02:38;5.43;;;3.00;;
5995;SDS011;3026;53.612;7.278;2023-06-14T03:05:05;4.80;;;2.83;;
5995;SDS011;3026;53.612;7.278;2023-06-14T03:07:34;4.23;;;3.10;;
5995;SDS011;3026;53.612;7.278;2023-06-14T03:10:06;4.23;;;3.50;;
5995;SDS011;3026;53.612;7.278;2023-06-14T03:12:34;4.57;;;3.00;;
5995;SDS011;3026;53.612;7.278;2023-06-14T03:15:01;7.63;;;3.17;;
5995;SDS011;3026;53.612;7.278;2023-06-14T03:17:29;4.10;;;2.63;;
5995;SDS011;3026;53.612;7.278;2023-06-14T03:19:58;6.77;;;3.13;;
5995;SDS011;3026;53.612;7.278;2023-06-14T03:22:25;5.17;;;3.33;;
5995;SDS011;3026;53.612;7.278;2023-06-14T03:24:55;4.83;;;2.60;;
5995;SDS011;3026;53.612;7.278;2023-06-14T03:27:21;6.73;;;3.20;;
5995;SDS011;3026;53.612;7.278;2023-06-14T03:29:48;4.80;;;2.90;;
5995;SDS011;3026;53.612;7.278;2023-06-14T03:32:15;5.20;;;3.00;;
5995;SDS011;3026;53.612;7.278;2023-06-14T03:34:42;8.80;;;3.13;;
5995;SDS011;3026;53.612;7.278;2023-06-14T03:37:10;4.37;;;2.83;;
5995;SDS011;3026;53.612;7.278;2023-06-14T03:39:37;4.73;;;3.40;;
5995;SDS011;3026;53.612;7.278;2023-06-14T03:42:12;7.40;;;3.30;;
5995;SDS011;3026;53.612;7.278;2023-06-14T03:44:39;4.97;;;2.80;;
5995;SDS011;3026;53.612;7.278;2023-06-14T03:47:06;5.27;;;3.10;;
5995;SDS011;3026;53.612;7.278;2023-06-14T03:49:33;7.03;;;3.23;;
5995;SDS011;3026;53.612;7.278;2023-06-14T03:52:00;6.90;;;3.40;;
5995;SDS011;3026;53.612;7.278;2023-06-14T03:54:27;5.73;;;3.03;;
5995;SDS011;3026;53.612;7.278;2023-06-14T03:56:54;5.87;;;3.97;;
5995;SDS011;3026;53.612;7.278;2023-06-14T03:59:23;6.77;;;3.50;;
5995;SDS011;3026;53.612;7.278;2023-06-14T04:01:51;5.77;;;3.30;;
5995;SDS011;3026;53.612;7.278;2023-06-14T04:04:18;7.40;;;3.70;;
5995;SDS011;3026;53.612;7.278;2023-06-14T04:06:46;7.13;;;3.23;;
5995;SDS011;3026;53.612;7.278;2023-06-14T04:09:13;4.57;;;3.30;;
5995;SDS011;3026;53.612;7.278;2023-06-14T04:11:40;10.20;;;3.33;;
5995;SDS011;3026;53.612;7.278;2023-06-14T04:14:07;4.47;;;3.53;;
5995;SDS011;3026;53.612;7.278;2023-06-14T04:16:35;7.77;;;3.80;;
5995;SDS011;3026;53.612;7.278;2023-06-14T04:19:01;5.13;;;3.00;;
5995;SDS011;3026;53.612;7.278;2023-06-14T04:21:28;7.63;;;4.00;;
5995;SDS011;3026;53.612;7.278;2023-06-14T04:23:55;5.83;;;3.43;;
5995;SDS011;3026;53.612;7.278;2023-06-14T04:26:22;6.13;;;3.50;;
5995;SDS011;3026;53.612;7.278;2023-06-14T04:28:54;5.40;;;3.17;;
5995;SDS011;3026;53.612;7.278;2023-06-14T04:31:21;6.57;;;3.60;;
5995;SDS011;3026;53.612;7.278;2023-06-14T04:33:51;6.87;;;3.33;;
5995;SDS011;3026;53.612;7.278;2023-06-14T04:36:20;7.93;;;3.87;;
5995;SDS011;3026;53.612;7.278;2023-06-14T04:38:47;4.23;;;3.17;;
5995;SDS011;3026;53.612;7.278;2023-06-14T04:41:14;3.73;;;2.93;;
5995;SDS011;3026;53.612;7.278;2023-06-14T04:43:41;4.70;;;3.60;;
5995;SDS011;3026;53.612;7.278;2023-06-14T04:46:08;4.73;;;3.03;;
5995;SDS011;3026;53.612;7.278;2023-06-14T04:48:36;6.47;;;3.50;;
5995;SDS011;3026;53.612;7.278;2023-06-14T04:51:06;4.50;;;3.30;;
5995;SDS011;3026;53.612;7.278;2023-06-14T04:53:33;7.70;;;3.43;;
5995;SDS011;3026;53.612;7.278;2023-06-14T04:55:59;9.43;;;3.47;;
5995;SDS011;3026;53.612;7.278;2023-06-14T04:58:28;4.43;;;3.53;;
5995;SDS011;3026;53.612;7.278;2023-06-14T05:00:54;5.00;;;3.33;;
5995;SDS011;3026;53.612;7.278;2023-06-14T05:03:22;6.27;;;3.90;;
5995;SDS011;3026;53.612;7.278;2023-06-14T05:05:49;7.23;;;3.87;;
5995;SDS011;3026;53.612;7.278;2023-06-14T05:08:17;5.70;;;3.60;;
5995;SDS011;3026;53.612;7.278;2023-06-14T05:10:44;5.77;;;3.50;;
5995;SDS011;3026;53.612;7.278;2023-06-14T05:13:10;4.83;;;3.23;;
5995;SDS011;3026;53.612;7.278;2023-06-14T05:15:37;4.97;;;3.80;;
5995;SDS011;3026;53.612;7.278;2023-06-14T05:18:04;6.67;;;4.03;;
5995;SDS011;3026;53.612;7.278;2023-06-14T05:20:34;5.70;;;3.10;;
5995;SDS011;3026;53.612;7.278;2023-06-14T05:23:02;8.23;;;3.67;;
5995;SDS011;3026;53.612;7.278;2023-06-14T05:25:31;5.83;;;3.20;;
5995;SDS011;3026;53.612;7.278;2023-06-14T05:27:57;4.37;;;2.63;;
5995;SDS011;3026;53.612;7.278;2023-06-14T05:30:24;4.80;;;2.83;;
5995;SDS011;3026;53.612;7.278;2023-06-14T05:32:51;7.63;;;3.03;;
5995;SDS011;3026;53.612;7.278;2023-06-14T05:35:18;5.57;;;3.17;;
5995;SDS011;3026;53.612;7.278;2023-06-14T05:37:47;7.33;;;3.10;;
5995;SDS011;3026;53.612;7.278;2023-06-14T05:40:14;5.07;;;3.20;;
5995;SDS011;3026;53.612;7.278;2023-06-14T05:42:43;5.97;;;3.07;;
5995;SDS011;3026;53.612;7.278;2023-06-14T05:45:10;4.43;;;3.17;;
5995;SDS011;3026;53.612;7.278;2023-06-14T05:47:37;5.40;;;2.53;;
5995;SDS011;3026;53.612;7.278;2023-06-14T05:50:04;4.73;;;3.23;;
5995;SDS011;3026;53.612;7.278;2023-06-14T05:52:31;3.87;;;2.97;;
5995;SDS011;3026;53.612;7.278;2023-06-14T05:54:58;2.90;;;2.50;;
5995;SDS011;3026;53.612;7.278;2023-06-14T05:57:25;6.40;;;2.90;;
5995;SDS011;3026;53.612;7.278;2023-06-14T05:59:54;3.60;;;2.83;;
5995;SDS011;3026;53.612;7.278;2023-06-14T06:02:20;2.83;;;2.47;;
5995;SDS011;3026;53.612;7.278;2023-06-14T06:04:47;5.43;;;3.20;;
5995;SDS011;3026;53.612;7.278;2023-06-14T06:07:14;4.53;;;2.97;;
5995;SDS011;3026;53.612;7.278;2023-06-14T06:09:41;5.47;;;3.10;;
5995;SDS011;3026;53.612;7.278;2023-06-14T06:12:08;3.37;;;2.57;;
5995;SDS011;3026;53.612;7.278;2023-06-14T06:14:35;5.73;;;2.83;;
5995;SDS011;3026;53.612;7.278;2023-06-14T06:17:03;4.80;;;2.67;;
5995;SDS011;3026;53.612;7.278;2023-06-14T06:19:31;3.43;;;2.47;;
5995;SDS011;3026;53.612;7.278;2023-06-14T06:21:58;5.17;;;2.90;;
5995;SDS011;3026;53.612;7.278;2023-06-14T06:24:25;4.47;;;3.00;;
5995;SDS011;3026;53.612;7.278;2023-06-14T06:26:51;4.60;;;2.77;;
5995;SDS011;3026;53.612;7.278;2023-06-14T06:29:19;6.43;;;3.13;;
5995;SDS011;3026;53.612;7.278;2023-06-14T06:31:45;3.10;;;2.50;;
5995;SDS011;3026;53.612;7.278;2023-06-14T06:34:14;3.70;;;2.93;;
5995;SDS011;3026;53.612;7.278;2023-06-14T06:36:40;5.93;;;3.40;;
5995;SDS011;3026;53.612;7.278;2023-06-14T06:39:07;6.53;;;3.30;;
5995;SDS011;3026;53.612;7.278;2023-06-14T06:41:35;7.10;;;2.67;;
5995;SDS011;3026;53.612;7.278;2023-06-14T06:44:04;5.37;;;3.13;;
5995;SDS011;3026;53.612;7.278;2023-06-14T06:46:31;4.73;;;2.90;;
5995;SDS011;3026;53.612;7.278;2023-06-14T06:48:58;4.13;;;2.50;;
5995;SDS011;3026;53.612;7.278;2023-06-14T06:51:26;5.37;;;3.10;;
5995;SDS011;3026;53.612;7.278;2023-06-14T06:53:53;4.63;;;2.43;;
5995;SDS011;3026;53.612;7.278;2023-06-14T06:56:20;5.47;;;2.90;;
5995;SDS011;3026;53.612;7.278;2023-06-14T06:58:48;8.90;;;2.80;;
5995;SDS011;3026;53.612;7.278;2023-06-14T07:01:15;9.93;;;3.07;;
5995;SDS011;3026;53.612;7.278;2023-06-14T07:03:42;3.90;;;2.97;;
5995;SDS011;3026;53.612;7.278;2023-06-14T07:06:09;4.47;;;2.50;;
5995;SDS011;3026;53.612;7.278;2023-06-14T07:08:37;5.33;;;2.80;;
5995;SDS011;3026;53.612;7.278;2023-06-14T07:11:04;4.60;;;2.67;;
5995;SDS011;3026;53.612;7.278;2023-06-14T07:13:32;9.37;;;2.93;;
5995;SDS011;3026;53.612;7.278;2023-06-14T07:15:59;6.23;;;2.80;;
5995;SDS011;3026;53.612;7.278;2023-06-14T07:18:26;6.33;;;2.60;;
5995;SDS011;3026;53.612;7.278;2023-06-14T07:20:53;7.50;;;2.73;;
5995;SDS011;3026;53.612;7.278;2023-06-14T07:23:21;4.17;;;2.47;;
5995;SDS011;3026;53.612;7.278;2023-06-14T07:25:49;8.13;;;2.93;;
5995;SDS011;3026;53.612;7.278;2023-06-14T07:28:16;4.17;;;3.27;;
5995;SDS011;3026;53.612;7.278;2023-06-14T07:30:46;5.17;;;2.90;;
5995;SDS011;3026;53.612;7.278;2023-06-14T07:33:13;4.00;;;2.57;;
5995;SDS011;3026;53.612;7.278;2023-06-14T07:35:40;6.50;;;2.70;;
5995;SDS011;3026;53.612;7.278;2023-06-14T07:38:07;4.27;;;2.27;;
5995;SDS011;3026;53.612;7.278;2023-06-14T07:40:33;3.30;;;2.60;;
5995;SDS011;3026;53.612;7.278;2023-06-14T07:43:02;4.03;;;2.40;;
5995;SDS011;3026;53.612;7.278;2023-06-14T07:45:28;2.90;;;2.60;;
5995;SDS011;3026;53.612;7.278;2023-06-14T07:47:55;4.00;;;2.87;;
5995;SDS011;3026;53.612;7.278;2023-06-14T07:50:22;6.20;;;2.63;;
5995;SDS011;3026;53.612;7.278;2023-06-14T07:52:49;5.80;;;3.10;;
5995;SDS011;3026;53.612;7.278;2023-06-14T07:55:16;2.50;;;2.23;;
5995;SDS011;3026;53.612;7.278;2023-06-14T07:57:43;5.30;;;2.60;;
5995;SDS011;3026;53.612;7.278;2023-06-14T08:00:13;6.10;;;2.77;;
5995;SDS011;3026;53.612;7.278;2023-06-14T08:02:43;4.10;;;2.47;;
5995;SDS011;3026;53.612;7.278;2023-06-14T08:05:11;3.83;;;2.47;;
5995;SDS011;3026;53.612;7.278;2023-06-14T08:07:38;7.10;;;2.67;;
5995;SDS011;3026;53.612;7.278;2023-06-14T08:10:06;6.27;;;2.60;;
5995;SDS011;3026;53.612;7.278;2023-06-14T08:12:33;5.37;;;2.60;;
5995;SDS011;3026;53.612;7.278;2023-06-14T08:15:00;6.80;;;2.47;;
5995;SDS011;3026;53.612;7.278;2023-06-14T08:17:29;4.80;;;2.83;;
5995;SDS011;3026;53.612;7.278;2023-06-14T08:19:56;3.93;;;2.57;;
5995;SDS011;3026;53.612;7.278;2023-06-14T08:22:23;5.53;;;2.57;;
5995;SDS011;3026;53.612;7.278;2023-06-14T08:24:53;3.97;;;2.67;;
5995;SDS011;3026;53.612;7.278;2023-06-14T08:27:19;6.93;;;2.70;;
5995;SDS011;3026;53.612;7.278;2023-06-14T08:29:47;5.20;;;2.70;;
5995;SDS011;3026;53.612;7.278;2023-06-14T08:32:14;3.40;;;2.70;;
5995;SDS011;3026;53.612;7.278;2023-06-14T08:34:42;4.80;;;2.87;;
5995;SDS011;3026;53.612;7.278;2023-06-14T08:37:09;4.80;;;2.50;;
5995;SDS011;3026;53.612;7.278;2023-06-14T08:39:36;3.03;;;2.40;;
5995;SDS011;3026;53.612;7.278;2023-06-14T08:42:03;3.30;;;2.40;;
5995;SDS011;3026;53.612;7.278;2023-06-14T08:44:32;4.55;;;2.55;;
5995;SDS011;3026;53.612;7.278;2023-06-14T08:46:59;3.30;;;2.30;;
5995;SDS011;3026;53.612;7.278;2023-06-14T08:49:28;3.58;;;2.40;;
5995;SDS011;3026;53.612;7.278;2023-06-14T08:51:59;6.30;;;2.50;;
5995;SDS011;3026;53.612;7.278;2023-06-14T08:54:27;4.57;;;2.17;;
5995;SDS011;3026;53.612;7.278;2023-06-14T08:56:55;7.13;;;2.53;;
5995;SDS011;3026;53.612;7.278;2023-06-14T08:59:23;4.30;;;2.30;;
5995;SDS011;3026;53.612;7.278;2023-06-14T09:01:52;4.90;;;2.40;;
5995;SDS011;3026;53.612;7.278;2023-06-14T09:04:19;5.63;;;2.67;;
5995;SDS011;3026;53.612;7.278;2023-06-14T09:06:46;3.40;;;2.33;;
5995;SDS011;3026;53.612;7.278;2023-06-14T09:09:21;6.57;;;2.33;;
5995;SDS011;3026;53.612;7.278;2023-06-14T09:11:49;3.75;;;2.30;;
5995;SDS011;3026;53.612;7.278;2023-06-14T09:14:17;7.40;;;2.30;;
5995;SDS011;3026;53.612;7.278;2023-06-14T09:16:44;2.63;;;2.25;;
5995;SDS011;3026;53.612;7.278;2023-06-14T09:19:13;3.25;;;2.75;;
5995;SDS011;3026;53.612;7.278;2023-06-14T09:21:47;4.70;;;2.10;;
5995;SDS011;3026;53.612;7.278;2023-06-14T09:24:14;5.82;;;2.35;;
5995;SDS011;3026;53.612;7.278;2023-06-14T09:26:42;4.07;;;2.40;;
5995;SDS011;3026;53.612;7.278;2023-06-14T09:29:09;3.53;;;2.17;;
5995;SDS011;3026;53.612;7.278;2023-06-14T09:31:36;2.40;;;2.20;;
5995;SDS011;3026;53.612;7.278;2023-06-14T09:34:03;5.07;;;2.50;;
5995;SDS011;3026;53.612;7.278;2023-06-14T09:36:31;3.83;;;2.25;;
5995;SDS011;3026;53.612;7.278;2023-06-14T09:39:00;3.47;;;2.42;;
5995;SDS011;3026;53.612;7.278;2023-06-14T09:41:31;3.17;;;2.88;;
5995;SDS011;3026;53.612;7.278;2023-06-14T09:44:00;4.13;;;2.50;;
5995;SDS011;3026;53.612;7.278;2023-06-14T09:46:29;3.83;;;2.60;;
5995;SDS011;3026;53.612;7.278;2023-06-14T09:48:56;3.05;;;2.58;;
5995;SDS011;3026;53.612;7.278;2023-06-14T09:51:24;3.63;;;2.30;;
5995;SDS011;3026;53.612;7.278;2023-06-14T09:53:51;4.25;;;2.30;;
5995;SDS011;3026;53.612;7.278;2023-06-14T09:56:20;2.80;;;2.30;;
5995;SDS011;3026;53.612;7.278;2023-06-14T09:58:54;4.70;;;2.53;;
5995;SDS011;3026;53.612;7.278;2023-06-14T10:01:24;3.55;;;2.67;;
5995;SDS011;3026;53.612;7.278;2023-06-14T10:03:54;8.75;;;3.03;;
5995;SDS011;3026;53.612;7.278;2023-06-14T10:06:26;5.55;;;2.60;;
5995;SDS011;3026;53.612;7.278;2023-06-14T10:08:56;2.88;;;2.45;;
5995;SDS011;3026;53.612;7.278;2023-06-14T10:11:24;4.47;;;2.28;;
5995;SDS011;3026;53.612;7.278;2023-06-14T10:13:52;2.63;;;2.42;;
5995;SDS011;3026;53.612;7.278;2023-06-14T10:16:20;4.05;;;3.17;;
5995;SDS011;3026;53.612;7.278;2023-06-14T10:18:59;5.40;;;2.65;;
5995;SDS011;3026;53.612;7.278;2023-06-14T10:21:32;3.30;;;2.50;;
5995;SDS011;3026;53.612;7.278;2023-06-14T10:24:05;5.18;;;2.65;;
5995;SDS011;3026;53.612;7.278;2023-06-14T10:26:39;4.43;;;2.45;;
5995;SDS011;3026;53.612;7.278;2023-06-14T10:29:17;5.38;;;2.38;;
5995;SDS011;3026;53.612;7.278;2023-06-14T10:31:46;2.55;;;2.35;;
5995;SDS011;3026;53.612;7.278;2023-06-14T10:34:20;4.63;;;2.53;;
5995;SDS011;3026;53.612;7.278;2023-06-14T10:36:59;2.85;;;2.55;;
5995;SDS011;3026;53.612;7.278;2023-06-14T10:39:28;7.03;;;3.00;;
5995;SDS011;3026;53.612;7.278;2023-06-14T10:41:55;3.95;;;2.85;;
5995;SDS011;3026;53.612;7.278;2023-06-14T10:47:21;5.22;;;2.88;;
5995;SDS011;3026;53.612;7.278;2023-06-14T10:49:51;4.07;;;3.00;;
5995;SDS011;3026;53.612;7.278;2023-06-14T10:52:21;8.00;;;3.03;;
5995;SDS011;3026;53.612;7.278;2023-06-14T10:54:56;5.30;;;2.80;;
5995;SDS011;3026;53.612;7.278;2023-06-14T10:57:25;4.85;;;2.83;;
5995;SDS011;3026;53.612;7.278;2023-06-14T10:59:52;3.95;;;2.92;;
5995;SDS011;3026;53.612;7.278;2023-06-14T11:05:23;5.80;;;3.45;;
5995;SDS011;3026;53.612;7.278;2023-06-14T11:07:55;6.72;;;3.10;;
5995;SDS011;3026;53.612;7.278;2023-06-14T11:10:36;4.20;;;3.20;;
5995;SDS011;3026;53.612;7.278;2023-06-14T11:13:04;3.38;;;2.97;;
5995;SDS011;3026;53.612;7.278;2023-06-14T11:15:32;4.93;;;3.50;;
5995;SDS011;3026;53.612;7.278;2023-06-14T11:18:00;7.38;;;3.22;;
5995;SDS011;3026;53.612;7.278;2023-06-14T11:20:29;4.93;;;3.05;;
5995;SDS011;3026;53.612;7.278;2023-06-14T11:22:57;8.25;;;3.25;;
5995;SDS011;3026;53.612;7.278;2023-06-14T11:25:24;7.13;;;3.30;;
5995;SDS011;3026;53.612;7.278;2023-06-14T11:27:53;6.57;;;3.10;;
5995;SDS011;3026;53.612;7.278;2023-06-14T11:30:21;5.15;;;3.28;;
5995;SDS011;3026;53.612;7.278;2023-06-14T11:32:48;6.20;;;3.30;;
5995;SDS011;3026;53.612;7.278;2023-06-14T11:35:15;4.63;;;2.95;;
5995;SDS011;3026;53.612;7.278;2023-06-14T11:37:44;4.22;;;2.85;;
5995;SDS011;3026;53.612;7.278;2023-06-14T11:40:13;7.65;;;3.28;;
5995;SDS011;3026;53.612;7.278;2023-06-14T11:42:40;7.47;;;3.25;;
5995;SDS011;3026;53.612;7.278;2023-06-14T11:45:08;6.38;;;3.50;;
5995;SDS011;3026;53.612;7.278;2023-06-14T11:47:36;7.38;;;3.35;;
5995;SDS011;3026;53.612;7.278;2023-06-14T11:50:05;5.63;;;2.58;;
5995;SDS011;3026;53.612;7.278;2023-06-14T11:52:33;7.15;;;3.40;;
5995;SDS011;3026;53.612;7.278;2023-06-14T11:55:02;5.15;;;3.00;;
5995;SDS011;3026;53.612;7.278;2023-06-14T11:57:30;4.05;;;3.25;;
5995;SDS011;3026;53.612;7.278;2023-06-14T12:00:02;5.75;;;3.10;;
5995;SDS011;3026;53.612;7.278;2023-06-14T12:02:32;5.93;;;3.45;;
5995;SDS011;3026;53.612;7.278;2023-06-14T12:05:03;5.20;;;3.05;;
5995;SDS011;3026;53.612;7.278;2023-06-14T12:07:33;4.90;;;3.25;;
5995;SDS011;3026;53.612;7.278;2023-06-14T12:10:07;6.18;;;3.10;;
5995;SDS011;3026;53.612;7.278;2023-06-14T12:12:36;7.57;;;2.80;;
5995;SDS011;3026;53.612;7.278;2023-06-14T12:15:04;4.22;;;2.70;;
5995;SDS011;3026;53.612;7.278;2023-06-14T12:17:33;5.57;;;3.08;;
5995;SDS011;3026;53.612;7.278;2023-06-14T12:20:04;7.75;;;3.30;;
5995;SDS011;3026;53.612;7.278;2023-06-14T12:22:36;6.30;;;3.50;;
5995;SDS011;3026;53.612;7.278;2023-06-14T12:25:03;5.85;;;2.80;;
5995;SDS011;3026;53.612;7.278;2023-06-14T12:27:32;6.18;;;3.15;;
5995;SDS011;3026;53.612;7.278;2023-06-14T12:29:59;5.90;;;3.08;;
5995;SDS011;3026;53.612;7.278;2023-06-14T12:32:27;7.07;;;2.92;;
5995;SDS011;3026;53.612;7.278;2023-06-14T12:34:54;4.40;;;2.95;;
5995;SDS011;3026;53.612;7.278;2023-06-14T12:37:21;3.25;;;2.80;;
5995;SDS011;3026;53.612;7.278;2023-06-14T12:39:48;6.07;;;2.80;;
5995;SDS011;3026;53.612;7.278;2023-06-14T12:42:16;5.90;;;2.78;;
5995;SDS011;3026;53.612;7.278;2023-06-14T12:44:44;4.10;;;3.05;;
5995;SDS011;3026;53.612;7.278;2023-06-14T12:47:11;5.38;;;3.00;;
5995;SDS011;3026;53.612;7.278;2023-06-14T12:49:39;3.13;;;2.83;;
5995;SDS011;3026;53.612;7.278;2023-06-14T12:52:07;6.68;;;2.97;;
5995;SDS011;3026;53.612;7.278;2023-06-14T12:54:34;6.40;;;2.80;;
5995;SDS011;3026;53.612;7.278;2023-06-14T12:57:01;5.90;;;3.40;;
5995;SDS011;3026;53.612;7.278;2023-06-14T12:59:28;3.90;;;3.03;;
5995;SDS011;3026;53.612;7.278;2023-06-14T13:01:59;4.35;;;2.83;;
5995;SDS011;3026;53.612;7.278;2023-06-14T13:04:36;4.50;;;2.60;;
5995;SDS011;3026;53.612;7.278;2023-06-14T13:07:03;5.03;;;2.53;;
5995;SDS011;3026;53.612;7.278;2023-06-14T13:09:30;6.00;;;2.65;;
5995;SDS011;3026;53.612;7.278;2023-06-14T13:11:57;5.78;;;2.47;;
5995;SDS011;3026;53.612;7.278;2023-06-14T13:14:24;3.63;;;2.95;;
5995;SDS011;3026;53.612;7.278;2023-06-14T13:16:51;5.43;;;2.58;;
5995;SDS011;3026;53.612;7.278;2023-06-14T13:19:19;2.83;;;2.58;;
5995;SDS011;3026;53.612;7.278;2023-06-14T13:21:46;4.38;;;2.83;;
5995;SDS011;3026;53.612;7.278;2023-06-14T13:24:13;6.10;;;2.50;;
5995;SDS011;3026;53.612;7.278;2023-06-14T13:26:39;5.93;;;2.55;;
5995;SDS011;3026;53.612;7.278;2023-06-14T13:29:06;6.57;;;2.85;;
5995;SDS011;3026;53.612;7.278;2023-06-14T13:31:33;4.75;;;2.85;;
5995;SDS011;3026;53.612;7.278;2023-06-14T13:34:00;5.25;;;2.78;;
5995;SDS011;3026;53.612;7.278;2023-06-14T13:36:28;6.53;;;2.40;;
5995;SDS011;3026;53.612;7.278;2023-06-14T13:38:55;2.38;;;2.17;;
5995;SDS011;3026;53.612;7.278;2023-06-14T13:41:23;2.75;;;2.28;;
5995;SDS011;3026;53.612;7.278;2023-06-14T13:43:56;7.03;;;2.40;;
5995;SDS011;3026;53.612;7.278;2023-06-14T13:46:23;5.45;;;2.53;;
5995;SDS011;3026;53.612;7.278;2023-06-14T13:48:50;2.75;;;2.47;;
5995;SDS011;3026;53.612;7.278;2023-06-14T13:51:17;3.92;;;2.92;;
5995;SDS011;3026;53.612;7.278;2023-06-14T13:53:47;4.30;;;2.50;;
5995;SDS011;3026;53.612;7.278;2023-06-14T13:56:14;3.25;;;2.22;;
5995;SDS011;3026;53.612;7.278;2023-06-14T13:58:41;6.13;;;2.60;;
5995;SDS011;3026;53.612;7.278;2023-06-14T14:01:08;4.05;;;2.33;;
5995;SDS011;3026;53.612;7.278;2023-06-14T14:03:35;6.78;;;2.80;;
5995;SDS011;3026;53.612;7.278;2023-06-14T14:06:02;4.75;;;2.60;;
5995;SDS011;3026;53.612;7.278;2023-06-14T14:08:31;3.10;;;2.58;;
5995;SDS011;3026;53.612;7.278;2023-06-14T14:10:59;5.78;;;2.38;;
5995;SDS011;3026;53.612;7.278;2023-06-14T14:13:26;3.33;;;2.50;;
5995;SDS011;3026;53.612;7.278;2023-06-14T14:15:53;4.10;;;2.38;;
5995;SDS011;3026;53.612;7.278;2023-06-14T14:18:20;6.05;;;2.55;;
5995;SDS011;3026;53.612;7.278;2023-06-14T14:20:47;3.90;;;2.45;;
5995;SDS011;3026;53.612;7.278;2023-06-14T14:23:13;4.03;;;2.35;;
5995;SDS011;3026;53.612;7.278;2023-06-14T14:25:40;5.03;;;2.58;;
5995;SDS011;3026;53.612;7.278;2023-06-14T14:28:08;5.78;;;2.70;;
5995;SDS011;3026;53.612;7.278;2023-06-14T14:30:36;2.50;;;2.03;;
5995;SDS011;3026;53.612;7.278;2023-06-14T14:33:04;7.38;;;2.67;;
5995;SDS011;3026;53.612;7.278;2023-06-14T14:35:31;4.47;;;2.20;;
5995;SDS011;3026;53.612;7.278;2023-06-14T14:37:58;3.35;;;2.33;;
5995;SDS011;3026;53.612;7.278;2023-06-14T14:40:25;3.88;;;2.70;;
5995;SDS011;3026;53.612;7.278;2023-06-14T14:42:52;5.25;;;2.38;;
5995;SDS011;3026;53.612;7.278;2023-06-14T14:45:20;6.85;;;2.63;;
5995;SDS011;3026;53.612;7.278;2023-06-14T14:47:47;5.10;;;2.25;;
5995;SDS011;3026;53.612;7.278;2023-06-14T14:50:14;5.93;;;2.53;;
5995;SDS011;3026;53.612;7.278;2023-06-14T14:52:41;8.77;;;2.22;;
5995;SDS011;3026;53.612;7.278;2023-06-14T14:55:08;4.28;;;2.00;;
5995;SDS011;3026;53.612;7.278;2023-06-14T14:57:35;6.45;;;2.40;;
5995;SDS011;3026;53.612;7.278;2023-06-14T15:00:02;2.70;;;2.50;;
5995;SDS011;3026;53.612;7.278;2023-06-14T15:02:32;3.53;;;2.55;;
5995;SDS011;3026;53.612;7.278;2023-06-14T15:04:58;7.07;;;2.50;;
5995;SDS011;3026;53.612;7.278;2023-06-14T15:07:26;3.65;;;2.10;;
5995;SDS011;3026;53.612;7.278;2023-06-14T15:09:53;5.18;;;2.10;;
5995;SDS011;3026;53.612;7.278;2023-06-14T15:12:20;4.38;;;2.08;;
5995;SDS011;3026;53.612;7.278;2023-06-14T15:14:49;3.47;;;2.70;;
5995;SDS011;3026;53.612;7.278;2023-06-14T15:17:17;5.03;;;2.70;;
5995;SDS011;3026;53.612;7.278;2023-06-14T15:19:46;3.83;;;2.40;;
5995;SDS011;3026;53.612;7.278;2023-06-14T15:22:13;3.47;;;2.25;;
5995;SDS011;3026;53.612;7.278;2023-06-14T15:24:41;3.25;;;2.28;;
5995;SDS011;3026;53.612;7.278;2023-06-14T15:27:07;4.07;;;2.38;;